sensor_id;sensor_type;location;lat;lon;timestamp;temperature;humidity
45837;DHT22;31548;51.420;-0.040;2024-03-29T00:01:34;10.10;99.90
45837;DHT22;31548;51.420;-0.040;2024-03-29T00:04:01;10.00;99.90
45837;DHT22;31548;51.420;-0.040;2024-03-29T00:06:27;10.00;99.90
45837;DHT22;31548;51.420;-0.040;2024-03-29T00:08:53;9.90;99.90
45837;DHT22;31548;51.420;-0.040;2024-03-29T00:11:19;9.90;99.90
45837;DHT22;31548;51.420;-0.040;2024-03-29T00:13:45;9.80;99.90
45837;DHT22;31548;51.420;-0.040;2024-03-29T00:16:12;9.70;99.90
45837;DHT22;31548;51.420;-0.040;2024-03-29T00:18:38;9.70;99.90
45837;DHT22;31548;51.420;-0.040;2024-03-29T00:21:04;9.70;99.90
45837;DHT22;31548;51.420;-0.040;2024-03-29T00:23:30;9.70;99.90
45837;DHT22;31548;51.420;-0.040;2024-03-29T00:25:57;9.60;99.90
45837;DHT22;31548;51.420;-0.040;2024-03-29T00:28:24;9.60;99.90
45837;DHT22;31548;51.420;-0.040;2024-03-29T00:30:51;9.60;99.90
45837;DHT22;31548;51.420;-0.040;2024-03-29T00:33:17;9.60;99.90
45837;DHT22;31548;51.420;-0.040;2024-03-29T00:35:43;9.60;99.90
45837;DHT22;31548;51.420;-0.040;2024-03-29T00:38:09;9.50;99.90
45837;DHT22;31548;51.420;-0.040;2024-03-29T00:40:36;9.60;99.90
45837;DHT22;31548;51.420;-0.040;2024-03-29T00:43:02;9.50;99.90
45837;DHT22;31548;51.420;-0.040;2024-03-29T00:45:28;9.50;99.90
45837;DHT22;31548;51.420;-0.040;2024-03-29T00:47:55;9.50;99.90
45837;DHT22;31548;51.420;-0.040;2024-03-29T00:50:21;9.50;99.90
45837;DHT22;31548;51.420;-0.040;2024-03-29T00:52:47;9.50;99.90
45837;DHT22;31548;51.420;-0.040;2024-03-29T00:55:14;9.40;99.90
45837;DHT22;31548;51.420;-0.040;2024-03-29T00:57:41;9.40;99.90
45837;DHT22;31548;51.420;-0.040;2024-03-29T01:00:07;9.40;99.90
45837;DHT22;31548;51.420;-0.040;2024-03-29T01:02:36;9.40;99.90
45837;DHT22;31548;51.420;-0.040;2024-03-29T01:05:02;9.40;99.90
45837;DHT22;31548;51.420;-0.040;2024-03-29T01:07:29;9.40;99.90
45837;DHT22;31548;51.420;-0.040;2024-03-29T01:09:55;9.40;99.90
45837;DHT22;31548;51.420;-0.040;2024-03-29T01:12:22;9.40;99.90
45837;DHT22;31548;51.420;-0.040;2024-03-29T01:14:48;9.40;99.90
45837;DHT22;31548;51.420;-0.040;2024-03-29T01:17:14;9.40;99.90
45837;DHT22;31548;51.420;-0.040;2024-03-29T01:19:41;9.40;99.90
45837;DHT22;31548;51.420;-0.040;2024-03-29T01:22:07;9.40;99.90
45837;DHT22;31548;51.420;-0.040;2024-03-29T01:24:34;9.30;99.90
45837;DHT22;31548;51.420;-0.040;2024-03-29T01:27:00;9.30;99.90
45837;DHT22;31548;51.420;-0.040;2024-03-29T01:29:27;9.30;99.90
45837;DHT22;31548;51.420;-0.040;2024-03-29T01:31:53;9.30;99.90
45837;DHT22;31548;51.420;-0.040;2024-03-29T01:34:19;9.30;99.90
45837;DHT22;31548;51.420;-0.040;2024-03-29T01:36:46;9.30;99.90
45837;DHT22;31548;51.420;-0.040;2024-03-29T01:39:13;9.30;99.90
45837;DHT22;31548;51.420;-0.040;2024-03-29T01:41:41;9.20;99.90
45837;DHT22;31548;51.420;-0.040;2024-03-29T01:44:07;9.30;99.90
45837;DHT22;31548;51.420;-0.040;2024-03-29T01:46:35;9.30;99.90
45837;DHT22;31548;51.420;-0.040;2024-03-29T01:49:02;9.30;99.90
45837;DHT22;31548;51.420;-0.040;2024-03-29T01:51:30;9.30;99.90
45837;DHT22;31548;51.420;-0.040;2024-03-29T01:53:58;9.30;99.90
45837;DHT22;31548;51.420;-0.040;2024-03-29T01:56:25;9.20;99.90
45837;DHT22;31548;51.420;-0.040;2024-03-29T01:58:55;9.20;99.90
45837;DHT22;31548;51.420;-0.040;2024-03-29T02:01:24;9.20;99.90
45837;DHT22;31548;51.420;-0.040;2024-03-29T02:03:52;9.20;99.90
45837;DHT22;31548;51.420;-0.040;2024-03-29T02:06:19;9.20;99.90
45837;DHT22;31548;51.420;-0.040;2024-03-29T02:08:47;9.20;99.90
45837;DHT22;31548;51.420;-0.040;2024-03-29T02:11:16;9.20;99.90
45837;DHT22;31548;51.420;-0.040;2024-03-29T02:13:42;9.20;99.90
45837;DHT22;31548;51.420;-0.040;2024-03-29T02:16:09;9.20;99.90
45837;DHT22;31548;51.420;-0.040;2024-03-29T02:18:35;9.10;99.90
45837;DHT22;31548;51.420;-0.040;2024-03-29T02:21:01;9.10;99.90
45837;DHT22;31548;51.420;-0.040;2024-03-29T02:23:29;9.10;99.90
45837;DHT22;31548;51.420;-0.040;2024-03-29T02:25:56;9.10;99.90
45837;DHT22;31548;51.420;-0.040;2024-03-29T02:28:22;9.10;99.90
45837;DHT22;31548;51.420;-0.040;2024-03-29T02:30:52;9.10;99.90
45837;DHT22;31548;51.420;-0.040;2024-03-29T02:33:21;9.10;99.90
45837;DHT22;31548;51.420;-0.040;2024-03-29T02:35:47;9.10;99.90
45837;DHT22;31548;51.420;-0.040;2024-03-29T02:38:14;9.10;99.90
45837;DHT22;31548;51.420;-0.040;2024-03-29T02:40:40;9.00;99.90
45837;DHT22;31548;51.420;-0.040;2024-03-29T02:43:06;9.00;99.90
45837;DHT22;31548;51.420;-0.040;2024-03-29T02:45:32;9.00;99.90
45837;DHT22;31548;51.420;-0.040;2024-03-29T02:47:59;9.00;99.90
45837;DHT22;31548;51.420;-0.040;2024-03-29T02:50:25;9.00;99.90
45837;DHT22;31548;51.420;-0.040;2024-03-29T02:52:51;9.00;99.90
45837;DHT22;31548;51.420;-0.040;2024-03-29T02:55:17;8.90;99.90
45837;DHT22;31548;51.420;-0.040;2024-03-29T02:57:43;8.90;99.90
45837;DHT22;31548;51.420;-0.040;2024-03-29T03:00:10;8.90;99.90
45837;DHT22;31548;51.420;-0.040;2024-03-29T03:02:39;8.80;99.90
45837;DHT22;31548;51.420;-0.040;2024-03-29T03:05:07;8.80;99.90
45837;DHT22;31548;51.420;-0.040;2024-03-29T03:07:34;8.80;99.90
45837;DHT22;31548;51.420;-0.040;2024-03-29T03:10:20;8.80;99.90
45837;DHT22;31548;51.420;-0.040;2024-03-29T03:13:04;8.80;99.90
45837;DHT22;31548;51.420;-0.040;2024-03-29T03:15:31;8.70;99.90
45837;DHT22;31548;51.420;-0.040;2024-03-29T03:17:57;8.70;99.90
45837;DHT22;31548;51.420;-0.040;2024-03-29T03:20:23;8.70;99.90
45837;DHT22;31548;51.420;-0.040;2024-03-29T03:22:54;8.70;99.90
45837;DHT22;31548;51.420;-0.040;2024-03-29T03:25:22;8.70;99.90
45837;DHT22;31548;51.420;-0.040;2024-03-29T03:27:48;8.70;99.90
45837;DHT22;31548;51.420;-0.040;2024-03-29T03:30:15;8.70;99.90
45837;DHT22;31548;51.420;-0.040;2024-03-29T03:32:41;8.60;99.90
45837;DHT22;31548;51.420;-0.040;2024-03-29T03:35:08;8.60;99.90
45837;DHT22;31548;51.420;-0.040;2024-03-29T03:37:34;8.60;99.90
45837;DHT22;31548;51.420;-0.040;2024-03-29T03:40:00;8.60;99.90
45837;DHT22;31548;51.420;-0.040;2024-03-29T03:42:26;8.60;99.90
45837;DHT22;31548;51.420;-0.040;2024-03-29T03:44:53;8.60;99.90
45837;DHT22;31548;51.420;-0.040;2024-03-29T03:47:19;8.60;99.90
45837;DHT22;31548;51.420;-0.040;2024-03-29T03:49:45;8.60;99.90
45837;DHT22;31548;51.420;-0.040;2024-03-29T03:52:11;8.60;99.90
45837;DHT22;31548;51.420;-0.040;2024-03-29T03:54:37;8.60;99.90
45837;DHT22;31548;51.420;-0.040;2024-03-29T03:57:04;8.50;99.90
45837;DHT22;31548;51.420;-0.040;2024-03-29T03:59:31;8.40;99.90
45837;DHT22;31548;51.420;-0.040;2024-03-29T04:01:57;8.50;99.90
45837;DHT22;31548;51.420;-0.040;2024-03-29T04:04:24;8.40;99.90
45837;DHT22;31548;51.420;-0.040;2024-03-29T04:06:50;8.40;99.90
45837;DHT22;31548;51.420;-0.040;2024-03-29T04:09:16;8.40;99.90
45837;DHT22;31548;51.420;-0.040;2024-03-29T04:11:43;8.30;99.90
45837;DHT22;31548;51.420;-0.040;2024-03-29T04:14:10;8.20;99.90
45837;DHT22;31548;51.420;-0.040;2024-03-29T04:16:36;8.10;99.90
45837;DHT22;31548;51.420;-0.040;2024-03-29T04:19:02;8.20;99.90
45837;DHT22;31548;51.420;-0.040;2024-03-29T04:21:28;8.10;99.90
45837;DHT22;31548;51.420;-0.040;2024-03-29T04:23:55;8.10;99.90
45837;DHT22;31548;51.420;-0.040;2024-03-29T04:26:22;8.10;99.90
45837;DHT22;31548;51.420;-0.040;2024-03-29T04:28:48;8.10;99.90
45837;DHT22;31548;51.420;-0.040;2024-03-29T04:31:14;8.20;99.90
45837;DHT22;31548;51.420;-0.040;2024-03-29T04:33:41;8.20;99.90
45837;DHT22;31548;51.420;-0.040;2024-03-29T04:36:07;8.20;99.90
45837;DHT22;31548;51.420;-0.040;2024-03-29T04:38:33;8.20;99.90
45837;DHT22;31548;51.420;-0.040;2024-03-29T04:41:00;8.20;99.90
45837;DHT22;31548;51.420;-0.040;2024-03-29T04:43:27;8.10;99.90
45837;DHT22;31548;51.420;-0.040;2024-03-29T04:46:13;8.10;99.90
45837;DHT22;31548;51.420;-0.040;2024-03-29T04:48:41;8.10;99.90
45837;DHT22;31548;51.420;-0.040;2024-03-29T04:51:08;8.10;99.90
45837;DHT22;31548;51.420;-0.040;2024-03-29T04:53:36;8.10;99.90
45837;DHT22;31548;51.420;-0.040;2024-03-29T04:56:03;8.10;99.90
45837;DHT22;31548;51.420;-0.040;2024-03-29T04:58:29;8.20;99.90
45837;DHT22;31548;51.420;-0.040;2024-03-29T05:00:55;8.10;99.90
45837;DHT22;31548;51.420;-0.040;2024-03-29T05:03:22;8.10;99.90
45837;DHT22;31548;51.420;-0.040;2024-03-29T05:05:53;8.20;99.90
45837;DHT22;31548;51.420;-0.040;2024-03-29T05:08:20;8.20;99.90
45837;DHT22;31548;51.420;-0.040;2024-03-29T05:10:50;8.20;99.90
45837;DHT22;31548;51.420;-0.040;2024-03-29T05:13:18;8.20;99.90
45837;DHT22;31548;51.420;-0.040;2024-03-29T05:15:47;8.20;99.90
45837;DHT22;31548;51.420;-0.040;2024-03-29T05:18:14;8.20;99.90
45837;DHT22;31548;51.420;-0.040;2024-03-29T05:20:40;8.20;99.90
45837;DHT22;31548;51.420;-0.040;2024-03-29T05:23:07;8.20;99.90
45837;DHT22;31548;51.420;-0.040;2024-03-29T05:25:33;8.20;99.90
45837;DHT22;31548;51.420;-0.040;2024-03-29T05:28:01;8.20;99.90
45837;DHT22;31548;51.420;-0.040;2024-03-29T05:30:27;8.30;99.90
45837;DHT22;31548;51.420;-0.040;2024-03-29T05:32:54;8.20;99.90
45837;DHT22;31548;51.420;-0.040;2024-03-29T05:35:21;8.20;99.90
45837;DHT22;31548;51.420;-0.040;2024-03-29T05:37:47;8.30;99.90
45837;DHT22;31548;51.420;-0.040;2024-03-29T05:40:17;8.30;99.90
45837;DHT22;31548;51.420;-0.040;2024-03-29T05:42:43;8.30;99.90
45837;DHT22;31548;51.420;-0.040;2024-03-29T05:45:29;8.30;99.90
45837;DHT22;31548;51.420;-0.040;2024-03-29T05:47:57;8.30;99.90
45837;DHT22;31548;51.420;-0.040;2024-03-29T05:50:25;8.30;99.90
45837;DHT22;31548;51.420;-0.040;2024-03-29T05:52:52;8.30;99.90
45837;DHT22;31548;51.420;-0.040;2024-03-29T05:55:19;8.40;99.90
45837;DHT22;31548;51.420;-0.040;2024-03-29T05:57:45;8.40;99.90
45837;DHT22;31548;51.420;-0.040;2024-03-29T06:00:12;8.40;99.90
45837;DHT22;31548;51.420;-0.040;2024-03-29T06:02:43;8.40;99.90
45837;DHT22;31548;51.420;-0.040;2024-03-29T06:05:11;8.40;99.90
45837;DHT22;31548;51.420;-0.040;2024-03-29T06:07:37;8.40;99.90
45837;DHT22;31548;51.420;-0.040;2024-03-29T06:10:04;8.40;99.90
45837;DHT22;31548;51.420;-0.040;2024-03-29T06:12:34;8.40;99.90
45837;DHT22;31548;51.420;-0.040;2024-03-29T06:15:02;8.50;99.90
45837;DHT22;31548;51.420;-0.040;2024-03-29T06:17:47;8.50;99.90
45837;DHT22;31548;51.420;-0.040;2024-03-29T06:20:13;8.50;99.90
45837;DHT22;31548;51.420;-0.040;2024-03-29T06:22:40;8.40;99.90
45837;DHT22;31548;51.420;-0.040;2024-03-29T06:25:06;8.50;99.90
45837;DHT22;31548;51.420;-0.040;2024-03-29T06:27:34;8.50;99.90
45837;DHT22;31548;51.420;-0.040;2024-03-29T06:30:01;8.60;99.90
45837;DHT22;31548;51.420;-0.040;2024-03-29T06:32:31;8.50;99.90
45837;DHT22;31548;51.420;-0.040;2024-03-29T06:34:58;8.50;99.90
45837;DHT22;31548;51.420;-0.040;2024-03-29T06:37:25;8.50;99.90
45837;DHT22;31548;51.420;-0.040;2024-03-29T06:39:52;8.60;99.90
45837;DHT22;31548;51.420;-0.040;2024-03-29T06:42:18;8.60;99.90
45837;DHT22;31548;51.420;-0.040;2024-03-29T06:44:45;8.60;99.90
45837;DHT22;31548;51.420;-0.040;2024-03-29T06:47:11;8.70;99.90
45837;DHT22;31548;51.420;-0.040;2024-03-29T06:49:38;8.70;99.90
45837;DHT22;31548;51.420;-0.040;2024-03-29T06:52:04;8.60;99.90
45837;DHT22;31548;51.420;-0.040;2024-03-29T06:54:31;8.60;99.90
45837;DHT22;31548;51.420;-0.040;2024-03-29T06:56:59;8.70;99.90
45837;DHT22;31548;51.420;-0.040;2024-03-29T06:59:26;8.70;99.90
45837;DHT22;31548;51.420;-0.040;2024-03-29T07:01:52;8.70;99.90
45837;DHT22;31548;51.420;-0.040;2024-03-29T07:04:23;8.80;99.90
45837;DHT22;31548;51.420;-0.040;2024-03-29T07:06:50;8.80;99.90
45837;DHT22;31548;51.420;-0.040;2024-03-29T07:09:20;8.80;99.90
45837;DHT22;31548;51.420;-0.040;2024-03-29T07:11:51;8.90;99.90
45837;DHT22;31548;51.420;-0.040;2024-03-29T07:14:18;8.90;99.90
45837;DHT22;31548;51.420;-0.040;2024-03-29T07:16:45;8.90;99.90
45837;DHT22;31548;51.420;-0.040;2024-03-29T07:19:12;8.90;99.90
45837;DHT22;31548;51.420;-0.040;2024-03-29T07:21:39;8.90;99.90
45837;DHT22;31548;51.420;-0.040;2024-03-29T07:24:06;9.00;99.90
45837;DHT22;31548;51.420;-0.040;2024-03-29T07:26:32;9.10;99.90
45837;DHT22;31548;51.420;-0.040;2024-03-29T07:28:59;9.20;99.90
45837;DHT22;31548;51.420;-0.040;2024-03-29T07:31:25;9.20;99.90
45837;DHT22;31548;51.420;-0.040;2024-03-29T07:33:51;9.20;99.90
45837;DHT22;31548;51.420;-0.040;2024-03-29T07:36:18;9.20;99.90
45837;DHT22;31548;51.420;-0.040;2024-03-29T07:38:44;9.30;99.90
45837;DHT22;31548;51.420;-0.040;2024-03-29T07:41:10;9.30;99.90
45837;DHT22;31548;51.420;-0.040;2024-03-29T07:43:40;9.40;99.90
45837;DHT22;31548;51.420;-0.040;2024-03-29T07:46:08;9.50;99.90
45837;DHT22;31548;51.420;-0.040;2024-03-29T07:48:35;9.60;99.90
45837;DHT22;31548;51.420;-0.040;2024-03-29T07:51:02;9.60;99.90
45837;DHT22;31548;51.420;-0.040;2024-03-29T07:53:28;9.70;99.90
45837;DHT22;31548;51.420;-0.040;2024-03-29T07:55:54;9.80;99.90
45837;DHT22;31548;51.420;-0.040;2024-03-29T07:58:21;9.90;99.90
45837;DHT22;31548;51.420;-0.040;2024-03-29T08:00:47;9.90;99.90
45837;DHT22;31548;51.420;-0.040;2024-03-29T08:03:14;10.00;99.90
45837;DHT22;31548;51.420;-0.040;2024-03-29T08:05:40;10.00;99.90
45837;DHT22;31548;51.420;-0.040;2024-03-29T08:08:06;10.00;99.90
45837;DHT22;31548;51.420;-0.040;2024-03-29T08:10:33;10.10;99.90
45837;DHT22;31548;51.420;-0.040;2024-03-29T08:12:59;10.10;99.90
45837;DHT22;31548;51.420;-0.040;2024-03-29T08:15:27;10.10;99.90
45837;DHT22;31548;51.420;-0.040;2024-03-29T08:17:53;10.10;99.90
45837;DHT22;31548;51.420;-0.040;2024-03-29T08:20:19;10.20;99.90
45837;DHT22;31548;51.420;-0.040;2024-03-29T08:22:45;10.30;99.90
45837;DHT22;31548;51.420;-0.040;2024-03-29T08:25:12;10.30;99.90
45837;DHT22;31548;51.420;-0.040;2024-03-29T08:27:38;10.50;99.90
45837;DHT22;31548;51.420;-0.040;2024-03-29T08:30:05;10.40;99.90
45837;DHT22;31548;51.420;-0.040;2024-03-29T08:32:32;10.40;99.90
45837;DHT22;31548;51.420;-0.040;2024-03-29T08:34:58;10.30;99.90
45837;DHT22;31548;51.420;-0.040;2024-03-29T08:37:25;10.40;99.90
45837;DHT22;31548;51.420;-0.040;2024-03-29T08:39:51;10.40;99.90
45837;DHT22;31548;51.420;-0.040;2024-03-29T08:42:17;10.40;99.90
45837;DHT22;31548;51.420;-0.040;2024-03-29T08:44:43;10.30;99.90
45837;DHT22;31548;51.420;-0.040;2024-03-29T08:47:10;10.30;99.90
45837;DHT22;31548;51.420;-0.040;2024-03-29T08:49:36;10.20;99.90
45837;DHT22;31548;51.420;-0.040;2024-03-29T08:52:03;10.30;99.90
45837;DHT22;31548;51.420;-0.040;2024-03-29T08:54:31;10.20;99.90
45837;DHT22;31548;51.420;-0.040;2024-03-29T08:56:58;10.20;99.90
45837;DHT22;31548;51.420;-0.040;2024-03-29T08:59:25;10.20;99.90
45837;DHT22;31548;51.420;-0.040;2024-03-29T09:01:51;10.30;99.90
45837;DHT22;31548;51.420;-0.040;2024-03-29T09:04:18;10.40;99.90
45837;DHT22;31548;51.420;-0.040;2024-03-29T09:06:45;10.40;99.90
45837;DHT22;31548;51.420;-0.040;2024-03-29T09:09:12;10.30;99.90
45837;DHT22;31548;51.420;-0.040;2024-03-29T09:11:39;10.30;99.90
45837;DHT22;31548;51.420;-0.040;2024-03-29T09:14:05;10.30;99.90
45837;DHT22;31548;51.420;-0.040;2024-03-29T09:16:35;10.50;99.90
45837;DHT22;31548;51.420;-0.040;2024-03-29T09:19:02;10.60;99.90
45837;DHT22;31548;51.420;-0.040;2024-03-29T09:21:28;10.60;99.90
45837;DHT22;31548;51.420;-0.040;2024-03-29T09:23:54;10.60;99.90
45837;DHT22;31548;51.420;-0.040;2024-03-29T09:26:21;10.60;99.90
45837;DHT22;31548;51.420;-0.040;2024-03-29T09:28:47;10.60;99.90
45837;DHT22;31548;51.420;-0.040;2024-03-29T09:31:13;10.70;99.90
45837;DHT22;31548;51.420;-0.040;2024-03-29T09:33:39;10.70;99.90
45837;DHT22;31548;51.420;-0.040;2024-03-29T09:36:06;10.70;99.90
45837;DHT22;31548;51.420;-0.040;2024-03-29T09:38:32;10.60;99.90
45837;DHT22;31548;51.420;-0.040;2024-03-29T09:43:33;10.70;99.90
45837;DHT22;31548;51.420;-0.040;2024-03-29T09:45:59;10.80;99.90
45837;DHT22;31548;51.420;-0.040;2024-03-29T09:48:26;10.80;99.90
45837;DHT22;31548;51.420;-0.040;2024-03-29T09:50:55;10.80;99.90
45837;DHT22;31548;51.420;-0.040;2024-03-29T09:53:23;10.90;99.90
45837;DHT22;31548;51.420;-0.040;2024-03-29T09:55:50;11.00;99.90
45837;DHT22;31548;51.420;-0.040;2024-03-29T09:58:17;11.10;99.90
45837;DHT22;31548;51.420;-0.040;2024-03-29T10:00:43;11.20;99.90
45837;DHT22;31548;51.420;-0.040;2024-03-29T10:03:09;11.30;99.90
45837;DHT22;31548;51.420;-0.040;2024-03-29T10:05:36;11.40;99.90
45837;DHT22;31548;51.420;-0.040;2024-03-29T10:08:04;11.50;99.90
45837;DHT22;31548;51.420;-0.040;2024-03-29T10:10:33;11.50;99.90
45837;DHT22;31548;51.420;-0.040;2024-03-29T10:12:59;11.30;99.90
45837;DHT22;31548;51.420;-0.040;2024-03-29T10:15:29;11.40;99.90
45837;DHT22;31548;51.420;-0.040;2024-03-29T10:17:55;11.40;99.90
45837;DHT22;31548;51.420;-0.040;2024-03-29T10:20:21;11.20;99.90
45837;DHT22;31548;51.420;-0.040;2024-03-29T10:22:49;11.20;99.90
45837;DHT22;31548;51.420;-0.040;2024-03-29T10:25:16;11.30;99.90
45837;DHT22;31548;51.420;-0.040;2024-03-29T10:27:42;11.30;99.90
45837;DHT22;31548;51.420;-0.040;2024-03-29T10:30:09;11.20;99.90
45837;DHT22;31548;51.420;-0.040;2024-03-29T10:32:39;11.20;99.90
45837;DHT22;31548;51.420;-0.040;2024-03-29T10:35:06;11.20;99.90
45837;DHT22;31548;51.420;-0.040;2024-03-29T10:37:33;11.30;99.90
45837;DHT22;31548;51.420;-0.040;2024-03-29T10:40:11;11.30;99.90
45837;DHT22;31548;51.420;-0.040;2024-03-29T10:42:41;11.40;99.90
45837;DHT22;31548;51.420;-0.040;2024-03-29T10:45:08;11.30;99.90
45837;DHT22;31548;51.420;-0.040;2024-03-29T10:47:35;11.50;99.90
45837;DHT22;31548;51.420;-0.040;2024-03-29T10:50:02;11.50;99.90
45837;DHT22;31548;51.420;-0.040;2024-03-29T10:52:31;11.40;99.90
45837;DHT22;31548;51.420;-0.040;2024-03-29T10:54:58;11.20;99.90
45837;DHT22;31548;51.420;-0.040;2024-03-29T10:57:26;11.10;99.90
45837;DHT22;31548;51.420;-0.040;2024-03-29T11:02:48;11.00;99.90
45837;DHT22;31548;51.420;-0.040;2024-03-29T11:05:16;11.00;99.90
45837;DHT22;31548;51.420;-0.040;2024-03-29T11:07:44;11.00;99.90
45837;DHT22;31548;51.420;-0.040;2024-03-29T11:10:29;10.90;99.90
45837;DHT22;31548;51.420;-0.040;2024-03-29T11:15:44;11.10;99.90
45837;DHT22;31548;51.420;-0.040;2024-03-29T11:18:12;11.30;99.90
45837;DHT22;31548;51.420;-0.040;2024-03-29T11:20:39;11.50;99.90
45837;DHT22;31548;51.420;-0.040;2024-03-29T11:23:12;11.40;99.90
45837;DHT22;31548;51.420;-0.040;2024-03-29T11:25:42;11.60;99.90
45837;DHT22;31548;51.420;-0.040;2024-03-29T11:28:11;11.50;99.90
45837;DHT22;31548;51.420;-0.040;2024-03-29T11:30:46;11.60;99.90
45837;DHT22;31548;51.420;-0.040;2024-03-29T11:33:43;11.70;99.90
45837;DHT22;31548;51.420;-0.040;2024-03-29T11:36:19;11.70;99.90
45837;DHT22;31548;51.420;-0.040;2024-03-29T11:38:57;11.70;99.90
45837;DHT22;31548;51.420;-0.040;2024-03-29T11:41:25;11.60;99.90
45837;DHT22;31548;51.420;-0.040;2024-03-29T11:43:54;11.60;99.90
45837;DHT22;31548;51.420;-0.040;2024-03-29T11:46:20;11.50;99.90
45837;DHT22;31548;51.420;-0.040;2024-03-29T11:48:47;11.40;99.90
45837;DHT22;31548;51.420;-0.040;2024-03-29T11:51:21;11.50;99.90
45837;DHT22;31548;51.420;-0.040;2024-03-29T11:53:50;11.50;99.90
45837;DHT22;31548;51.420;-0.040;2024-03-29T11:56:17;11.60;99.90
45837;DHT22;31548;51.420;-0.040;2024-03-29T11:58:44;12.00;99.90
45837;DHT22;31548;51.420;-0.040;2024-03-29T12:01:10;12.20;99.90
45837;DHT22;31548;51.420;-0.040;2024-03-29T12:03:40;12.40;99.90
45837;DHT22;31548;51.420;-0.040;2024-03-29T12:06:08;12.40;99.90
45837;DHT22;31548;51.420;-0.040;2024-03-29T12:08:37;12.40;99.90
45837;DHT22;31548;51.420;-0.040;2024-03-29T12:11:04;12.50;99.90
45837;DHT22;31548;51.420;-0.040;2024-03-29T12:13:31;12.40;99.90
45837;DHT22;31548;51.420;-0.040;2024-03-29T12:15:57;12.40;99.90
45837;DHT22;31548;51.420;-0.040;2024-03-29T12:18:26;12.50;99.90
45837;DHT22;31548;51.420;-0.040;2024-03-29T12:20:58;12.70;99.90
45837;DHT22;31548;51.420;-0.040;2024-03-29T12:23:25;13.00;99.90
45837;DHT22;31548;51.420;-0.040;2024-03-29T12:25:54;13.10;99.90
45837;DHT22;31548;51.420;-0.040;2024-03-29T12:28:24;13.40;99.90
45837;DHT22;31548;51.420;-0.040;2024-03-29T12:30:50;13.40;99.90
45837;DHT22;31548;51.420;-0.040;2024-03-29T12:33:20;13.50;99.90
45837;DHT22;31548;51.420;-0.040;2024-03-29T12:35:49;13.40;99.90
45837;DHT22;31548;51.420;-0.040;2024-03-29T12:38:18;13.40;99.90
45837;DHT22;31548;51.420;-0.040;2024-03-29T12:40:46;13.10;99.90
45837;DHT22;31548;51.420;-0.040;2024-03-29T12:43:20;13.00;99.90
45837;DHT22;31548;51.420;-0.040;2024-03-29T12:45:49;13.10;99.90
45837;DHT22;31548;51.420;-0.040;2024-03-29T12:48:22;13.20;99.90
45837;DHT22;31548;51.420;-0.040;2024-03-29T12:50:51;13.20;99.90
45837;DHT22;31548;51.420;-0.040;2024-03-29T12:53:19;13.20;99.90
45837;DHT22;31548;51.420;-0.040;2024-03-29T12:55:47;13.10;99.90
45837;DHT22;31548;51.420;-0.040;2024-03-29T12:58:15;13.10;99.90
45837;DHT22;31548;51.420;-0.040;2024-03-29T13:00:42;12.90;99.90
45837;DHT22;31548;51.420;-0.040;2024-03-29T13:03:09;12.80;99.90
45837;DHT22;31548;51.420;-0.040;2024-03-29T13:05:36;12.70;99.90
45837;DHT22;31548;51.420;-0.040;2024-03-29T13:08:14;12.70;99.90
45837;DHT22;31548;51.420;-0.040;2024-03-29T13:10:43;12.60;99.90
45837;DHT22;31548;51.420;-0.040;2024-03-29T13:13:10;12.50;99.90
45837;DHT22;31548;51.420;-0.040;2024-03-29T13:15:38;12.40;99.90
45837;DHT22;31548;51.420;-0.040;2024-03-29T13:18:05;12.50;99.90
45837;DHT22;31548;51.420;-0.040;2024-03-29T13:20:35;12.50;99.90
45837;DHT22;31548;51.420;-0.040;2024-03-29T13:23:03;12.70;99.90
45837;DHT22;31548;51.420;-0.040;2024-03-29T13:25:29;12.90;99.90
45837;DHT22;31548;51.420;-0.040;2024-03-29T13:27:55;13.20;99.90
45837;DHT22;31548;51.420;-0.040;2024-03-29T13:30:23;13.50;99.90
45837;DHT22;31548;51.420;-0.040;2024-03-29T13:32:50;13.80;99.90
45837;DHT22;31548;51.420;-0.040;2024-03-29T13:35:17;14.00;99.90
45837;DHT22;31548;51.420;-0.040;2024-03-29T13:37:51;13.90;99.90
45837;DHT22;31548;51.420;-0.040;2024-03-29T13:40:22;14.00;99.90
45837;DHT22;31548;51.420;-0.040;2024-03-29T13:42:50;13.90;99.90
45837;DHT22;31548;51.420;-0.040;2024-03-29T13:45:17;14.10;99.90
45837;DHT22;31548;51.420;-0.040;2024-03-29T13:47:45;13.90;99.90
45837;DHT22;31548;51.420;-0.040;2024-03-29T13:50:13;13.70;99.90
45837;DHT22;31548;51.420;-0.040;2024-03-29T13:52:42;14.00;99.90
45837;DHT22;31548;51.420;-0.040;2024-03-29T13:55:09;14.00;99.90
45837;DHT22;31548;51.420;-0.040;2024-03-29T13:57:36;14.10;99.90
45837;DHT22;31548;51.420;-0.040;2024-03-29T14:00:03;14.20;99.90
45837;DHT22;31548;51.420;-0.040;2024-03-29T14:02:32;14.40;99.90
45837;DHT22;31548;51.420;-0.040;2024-03-29T14:04:59;14.20;99.90
45837;DHT22;31548;51.420;-0.040;2024-03-29T14:07:25;14.00;99.90
45837;DHT22;31548;51.420;-0.040;2024-03-29T14:09:52;14.00;99.90
45837;DHT22;31548;51.420;-0.040;2024-03-29T14:12:18;14.10;99.90
45837;DHT22;31548;51.420;-0.040;2024-03-29T14:14:48;14.00;99.90
45837;DHT22;31548;51.420;-0.040;2024-03-29T14:17:17;14.30;99.90
45837;DHT22;31548;51.420;-0.040;2024-03-29T14:19:44;14.30;99.90
45837;DHT22;31548;51.420;-0.040;2024-03-29T14:22:10;14.10;99.90
45837;DHT22;31548;51.420;-0.040;2024-03-29T14:24:41;13.90;99.90
45837;DHT22;31548;51.420;-0.040;2024-03-29T14:27:08;13.90;99.90
45837;DHT22;31548;51.420;-0.040;2024-03-29T14:29:35;13.90;99.90
45837;DHT22;31548;51.420;-0.040;2024-03-29T14:32:01;14.10;99.90
45837;DHT22;31548;51.420;-0.040;2024-03-29T14:34:28;14.70;99.90
45837;DHT22;31548;51.420;-0.040;2024-03-29T14:36:58;14.80;99.90
45837;DHT22;31548;51.420;-0.040;2024-03-29T14:39:24;14.50;99.90
45837;DHT22;31548;51.420;-0.040;2024-03-29T14:41:52;14.50;99.90
45837;DHT22;31548;51.420;-0.040;2024-03-29T14:44:18;15.00;99.90
45837;DHT22;31548;51.420;-0.040;2024-03-29T14:46:47;15.20;99.90
45837;DHT22;31548;51.420;-0.040;2024-03-29T14:49:14;14.80;99.90
45837;DHT22;31548;51.420;-0.040;2024-03-29T14:51:40;14.50;99.90
45837;DHT22;31548;51.420;-0.040;2024-03-29T14:54:07;15.10;99.90
45837;DHT22;31548;51.420;-0.040;2024-03-29T14:56:34;15.30;99.90
45837;DHT22;31548;51.420;-0.040;2024-03-29T14:59:05;15.10;99.90
45837;DHT22;31548;51.420;-0.040;2024-03-29T15:01:32;15.10;99.90
45837;DHT22;31548;51.420;-0.040;2024-03-29T15:03:59;15.40;99.90
45837;DHT22;31548;51.420;-0.040;2024-03-29T15:06:25;15.30;99.90
45837;DHT22;31548;51.420;-0.040;2024-03-29T15:08:54;15.20;99.90
45837;DHT22;31548;51.420;-0.040;2024-03-29T15:11:20;14.90;99.90
45837;DHT22;31548;51.420;-0.040;2024-03-29T15:13:48;14.80;99.90
45837;DHT22;31548;51.420;-0.040;2024-03-29T15:16:16;14.80;99.90
45837;DHT22;31548;51.420;-0.040;2024-03-29T15:18:44;15.40;99.90
45837;DHT22;31548;51.420;-0.040;2024-03-29T15:21:10;15.60;99.90
45837;DHT22;31548;51.420;-0.040;2024-03-29T15:23:37;15.90;99.90
45837;DHT22;31548;51.420;-0.040;2024-03-29T15:26:03;16.10;99.90
45837;DHT22;31548;51.420;-0.040;2024-03-29T15:28:30;16.80;99.90
45837;DHT22;31548;51.420;-0.040;2024-03-29T15:31:17;16.90;99.90
45837;DHT22;31548;51.420;-0.040;2024-03-29T15:33:46;17.00;99.90